createdAt,value
2018-10-17T00:01:39.751Z,12.96
2018-10-17T00:04:08.025Z,12.84
2018-10-17T00:06:36.138Z,12.78
2018-10-17T00:09:06.178Z,12.83
2018-10-17T00:11:34.457Z,12.78
2018-10-17T00:14:02.377Z,12.80
2018-10-17T00:16:30.787Z,12.65
2018-10-17T00:18:58.933Z,12.62
2018-10-17T00:21:27.118Z,12.66
2018-10-17T00:23:55.259Z,12.68
2018-10-17T00:26:23.523Z,12.73
2018-10-17T00:28:51.826Z,12.62
2018-10-17T00:31:19.854Z,12.49
2018-10-17T00:33:47.882Z,12.58
2018-10-17T00:36:16.024Z,12.69
2018-10-17T00:38:44.247Z,12.78
2018-10-17T00:41:12.141Z,12.80
2018-10-17T00:43:40.366Z,12.78
2018-10-17T00:46:08.317Z,12.71
2018-10-17T00:48:35.994Z,12.62
2018-10-17T00:51:03.817Z,12.56
2018-10-17T00:53:31.446Z,12.55
2018-10-17T00:55:59.183Z,12.51
2018-10-17T00:58:27.435Z,12.43
2018-10-17T01:00:55.525Z,12.42
2018-10-17T01:03:23.707Z,12.39
2018-10-17T01:05:51.872Z,12.47
2018-10-17T01:08:19.603Z,12.50
2018-10-17T01:10:47.799Z,12.42
2018-10-17T01:13:16.094Z,12.46
2018-10-17T01:15:44.252Z,12.48
2018-10-17T01:18:12.293Z,12.51
2018-10-17T01:20:40.275Z,12.32
2018-10-17T01:23:08.386Z,12.29
2018-10-17T01:25:36.593Z,12.38
2018-10-17T01:28:04.740Z,12.39
2018-10-17T01:30:32.738Z,12.40
2018-10-17T01:33:00.974Z,12.42
2018-10-17T01:35:29.302Z,12.38
2018-10-17T01:37:57.563Z,12.30
2018-10-17T01:40:25.693Z,12.37
2018-10-17T01:42:53.985Z,12.35
2018-10-17T01:45:22.351Z,12.38
2018-10-17T01:47:50.482Z,12.40
2018-10-17T01:50:18.735Z,12.44
2018-10-17T01:52:46.966Z,12.45
2018-10-17T01:55:14.965Z,12.38
2018-10-17T01:57:43.147Z,12.37
2018-10-17T02:00:11.727Z,12.35
2018-10-17T02:02:40.438Z,12.34
2018-10-17T02:05:08.485Z,12.25
2018-10-17T02:07:36.739Z,12.22
2018-10-17T02:10:04.780Z,12.20
2018-10-17T02:12:33.039Z,12.10
2018-10-17T02:15:01.258Z,12.04
2018-10-17T02:17:29.359Z,12.02
2018-10-17T02:19:57.463Z,11.99
2018-10-17T02:22:25.631Z,11.94
2018-10-17T02:24:54.013Z,12.00
2018-10-17T02:27:22.291Z,12.06
2018-10-17T02:29:50.466Z,12.01
2018-10-17T02:32:18.355Z,12.01
2018-10-17T02:34:51.659Z,12.11
2018-10-17T02:37:20.235Z,12.20
2018-10-17T02:39:49.204Z,12.11
2018-10-17T02:42:17.234Z,12.11
2018-10-17T02:44:45.503Z,12.02
2018-10-17T02:47:13.899Z,12.13
2018-10-17T02:49:42.303Z,12.08
2018-10-17T02:52:10.375Z,12.01
2018-10-17T02:54:38.624Z,11.98
2018-10-17T02:57:06.927Z,11.89
2018-10-17T02:59:34.930Z,11.94
2018-10-17T03:02:03.051Z,11.79
2018-10-17T03:04:31.348Z,11.73
2018-10-17T03:06:59.642Z,11.76
2018-10-17T03:09:28.038Z,11.71
2018-10-17T03:11:56.199Z,11.72
2018-10-17T03:14:24.295Z,11.71
2018-10-17T03:16:52.726Z,11.68
2018-10-17T03:19:21.043Z,11.60
2018-10-17T03:21:49.253Z,11.49
2018-10-17T03:24:17.547Z,11.45
2018-10-17T03:26:45.624Z,11.49
2018-10-17T03:29:13.727Z,11.51
2018-10-17T03:31:42.140Z,11.51
2018-10-17T03:34:10.279Z,11.52
2018-10-17T03:36:38.789Z,11.50
2018-10-17T03:39:09.620Z,11.47
2018-10-17T03:41:37.755Z,11.50
2018-10-17T03:44:05.993Z,11.57
2018-10-17T03:46:34.544Z,11.05
2018-10-17T03:49:02.291Z,11.05
2018-10-17T03:51:30.391Z,11.14
2018-10-17T03:53:58.367Z,11.18
2018-10-17T03:56:26.798Z,11.02
2018-10-17T03:58:55.132Z,11.14
2018-10-17T04:01:23.571Z,11.27
2018-10-17T04:03:51.802Z,11.39
2018-10-17T04:06:20.444Z,11.46
2018-10-17T04:08:48.530Z,11.53
2018-10-17T04:11:16.950Z,11.64
2018-10-17T04:13:45.043Z,11.68
2018-10-17T04:16:12.972Z,11.59
2018-10-17T04:18:40.982Z,11.53
2018-10-17T04:21:08.879Z,11.51
2018-10-17T04:23:36.787Z,11.43
2018-10-17T04:26:04.863Z,11.42
2018-10-17T04:28:33.259Z,11.44
2018-10-17T04:31:01.436Z,11.44
2018-10-17T04:33:29.835Z,11.43
2018-10-17T04:35:58.304Z,11.46
2018-10-17T04:38:26.340Z,11.47
2018-10-17T04:40:54.338Z,11.43
2018-10-17T04:43:22.644Z,11.44
2018-10-17T04:45:50.862Z,11.46
2018-10-17T04:48:19.188Z,11.44
2018-10-17T04:50:47.278Z,11.56
2018-10-17T04:53:15.623Z,11.59
2018-10-17T04:55:43.515Z,11.55
2018-10-17T04:58:11.624Z,11.68
2018-10-17T05:00:39.951Z,11.79
2018-10-17T05:03:08.123Z,12.00
2018-10-17T05:05:36.219Z,12.23
2018-10-17T05:08:04.562Z,12.42
2018-10-17T05:10:32.266Z,12.95
2018-10-17T05:13:00.283Z,13.25
2018-10-17T05:15:28.538Z,13.55
2018-10-17T05:17:56.770Z,14.27
2018-10-17T05:20:25.112Z,15.01
2018-10-17T05:22:53.374Z,15.32
2018-10-17T05:25:21.595Z,15.87
2018-10-17T05:27:49.469Z,16.40
2018-10-17T05:30:17.361Z,16.74
2018-10-17T05:32:45.726Z,16.78
2018-10-17T05:35:13.779Z,16.46
2018-10-17T05:37:42.017Z,16.70
2018-10-17T05:40:10.158Z,16.98
2018-10-17T05:42:38.127Z,17.14
2018-10-17T05:45:07.034Z,17.20
2018-10-17T05:47:35.311Z,16.94
2018-10-17T05:50:03.580Z,16.44
2018-10-17T05:52:32.019Z,16.40
2018-10-17T05:55:00.362Z,16.35
2018-10-17T05:57:28.577Z,16.18
2018-10-17T05:59:57.096Z,16.35
2018-10-17T06:02:28.695Z,16.26
2018-10-17T06:04:56.891Z,16.13
2018-10-17T06:07:24.996Z,15.95
2018-10-17T06:09:53.404Z,15.98
2018-10-17T06:12:21.560Z,16.21
2018-10-17T06:14:49.554Z,16.42
2018-10-17T06:17:17.923Z,16.69
2018-10-17T06:19:46.140Z,16.86
2018-10-17T06:22:14.395Z,16.93
2018-10-17T06:24:42.711Z,17.00
2018-10-17T06:27:11.191Z,16.62
2018-10-17T06:29:39.272Z,16.84
2018-10-17T06:32:07.536Z,16.69
2018-10-17T06:34:36.067Z,16.31
2018-10-17T06:37:04.463Z,16.82
2018-10-17T06:39:32.502Z,17.37
2018-10-17T06:42:00.688Z,17.22
2018-10-17T06:44:28.708Z,17.52
2018-10-17T06:46:56.969Z,17.06
2018-10-17T06:49:25.244Z,16.88
2018-10-17T06:51:53.566Z,17.16
2018-10-17T06:54:21.755Z,17.07
2018-10-17T06:56:49.896Z,17.55
2018-10-17T06:59:18.232Z,17.70
2018-10-17T07:01:46.465Z,17.93
2018-10-17T07:04:14.484Z,18.29
2018-10-17T07:06:42.342Z,18.38
2018-10-17T07:09:10.621Z,18.61
2018-10-17T07:11:38.872Z,18.96
2018-10-17T07:14:06.995Z,19.18
2018-10-17T07:16:36.095Z,19.03
2018-10-17T07:19:04.456Z,19.55
2018-10-17T07:21:32.606Z,19.27
2018-10-17T07:24:00.647Z,19.36
2018-10-17T07:26:28.611Z,18.65
2018-10-17T07:28:57.111Z,18.32
2018-10-17T07:31:25.359Z,18.37
2018-10-17T07:33:53.611Z,18.62
2018-10-17T07:36:21.892Z,18.26
2018-10-17T07:38:49.967Z,18.71
2018-10-17T07:41:18.310Z,18.91
2018-10-17T07:43:46.488Z,19.36
2018-10-17T07:46:14.705Z,19.42
2018-10-17T07:48:42.821Z,19.16
2018-10-17T07:51:11.084Z,19.48
2018-10-17T07:53:38.817Z,20.19
2018-10-17T07:56:06.602Z,20.13
2018-10-17T07:58:34.658Z,20.41
2018-10-17T08:01:03.044Z,20.47
2018-10-17T08:03:31.335Z,21.30
2018-10-17T08:05:59.549Z,21.75
2018-10-17T08:08:27.819Z,21.54
2018-10-17T08:10:56.290Z,21.47
2018-10-17T08:13:24.395Z,20.18
2018-10-17T08:15:52.891Z,20.00
2018-10-17T08:18:21.187Z,19.64
2018-10-17T08:20:49.199Z,18.79
2018-10-17T08:23:17.463Z,19.07
2018-10-17T08:25:45.750Z,18.93
2018-10-17T08:28:14.178Z,19.24
2018-10-17T08:30:42.287Z,19.06
2018-10-17T08:33:10.595Z,19.48
2018-10-17T08:35:38.709Z,19.95
2018-10-17T08:38:06.874Z,19.92
2018-10-17T08:40:35.067Z,20.39
2018-10-17T08:43:03.235Z,20.28
2018-10-17T08:45:31.324Z,20.73
2018-10-17T08:47:59.254Z,20.80
2018-10-17T08:50:27.685Z,20.24
2018-10-17T08:52:55.737Z,20.27
2018-10-17T08:55:23.603Z,21.14
2018-10-17T08:57:51.835Z,21.62
2018-10-17T09:00:20.004Z,21.74
2018-10-17T09:02:48.067Z,22.30
2018-10-17T09:05:16.175Z,21.98
2018-10-17T09:07:44.434Z,21.47
2018-10-17T09:10:12.732Z,22.32
2018-10-17T09:12:40.931Z,22.82
2018-10-17T09:15:09.179Z,23.16
2018-10-17T09:17:37.150Z,22.67
2018-10-17T09:20:06.349Z,22.04
2018-10-17T09:22:34.765Z,21.88
2018-10-17T09:25:02.618Z,21.56
2018-10-17T09:27:30.496Z,21.44
2018-10-17T09:29:58.222Z,21.95
2018-10-17T09:32:25.966Z,21.78
2018-10-17T09:34:53.714Z,22.19
2018-10-17T09:37:21.521Z,22.51
2018-10-17T09:39:49.219Z,21.88
2018-10-17T09:42:16.991Z,21.75
2018-10-17T09:44:44.619Z,22.03
2018-10-17T09:47:12.382Z,21.57
2018-10-17T09:49:40.151Z,21.10
2018-10-17T09:52:07.879Z,21.25
2018-10-17T09:54:35.719Z,21.18
2018-10-17T09:57:03.528Z,20.84
2018-10-17T09:59:31.295Z,20.60
2018-10-17T10:01:59.019Z,20.53
2018-10-17T10:04:27.943Z,20.47
2018-10-17T10:06:55.881Z,19.95
2018-10-17T10:09:24.175Z,19.77
2018-10-17T10:11:52.170Z,19.63
2018-10-17T10:14:20.479Z,19.38
2018-10-17T10:16:48.796Z,19.38
2018-10-17T10:19:17.227Z,19.17
2018-10-17T10:21:45.524Z,18.76
2018-10-17T10:24:14.141Z,18.83
2018-10-17T10:26:42.188Z,18.57
2018-10-17T10:29:10.534Z,18.58
2018-10-17T10:31:38.875Z,18.63
2018-10-17T10:34:07.368Z,18.34
2018-10-17T10:36:35.566Z,18.03
2018-10-17T10:39:06.218Z,18.20
2018-10-17T10:41:34.579Z,18.39
2018-10-17T10:44:03.377Z,18.59
2018-10-17T10:46:31.650Z,18.97
2018-10-17T10:49:00.077Z,19.04
2018-10-17T10:51:28.323Z,19.15
2018-10-17T10:53:56.154Z,19.33
2018-10-17T10:56:23.922Z,19.60
2018-10-17T10:58:52.105Z,19.94
2018-10-17T11:01:20.065Z,19.67
2018-10-17T11:03:47.837Z,19.76
2018-10-17T11:06:15.571Z,19.63
2018-10-17T11:08:43.352Z,19.58
2018-10-17T11:11:11.239Z,19.64
2018-10-17T11:13:38.960Z,19.52
2018-10-17T11:16:06.720Z,19.92
2018-10-17T11:18:34.452Z,20.13
2018-10-17T11:21:02.234Z,19.85
2018-10-17T11:23:29.981Z,19.91
2018-10-17T11:25:57.991Z,20.10
2018-10-17T11:28:26.385Z,20.21
2018-10-17T11:30:54.408Z,20.50
2018-10-17T11:33:22.120Z,20.32
2018-10-17T11:35:49.867Z,20.05
2018-10-17T11:38:17.595Z,19.80
2018-10-17T11:40:45.902Z,19.59
2018-10-17T11:43:14.284Z,19.98
2018-10-17T11:45:42.588Z,20.08
2018-10-17T11:48:11.101Z,20.58
2018-10-17T11:50:39.366Z,20.23
2018-10-17T11:53:07.591Z,20.02
2018-10-17T11:55:35.900Z,20.12
2018-10-17T11:58:04.243Z,20.19
2018-10-17T12:00:32.056Z,20.38
2018-10-17T12:02:59.863Z,21.06
2018-10-17T12:05:28.300Z,21.07
2018-10-17T12:07:56.507Z,21.28
2018-10-17T12:10:24.804Z,21.58
2018-10-17T12:12:52.640Z,21.70
2018-10-17T12:15:20.584Z,22.13
2018-10-17T12:17:48.455Z,22.24
2018-10-17T12:20:16.316Z,22.41
2018-10-17T12:22:44.839Z,22.39
2018-10-17T12:25:13.270Z,22.92
2018-10-17T12:27:41.265Z,22.62
2018-10-17T12:30:12.511Z,22.95
2018-10-17T12:32:40.327Z,22.48
2018-10-17T12:35:08.306Z,22.73
2018-10-17T12:37:36.727Z,23.25
2018-10-17T12:40:05.639Z,23.21
2018-10-17T12:42:33.499Z,22.89
2018-10-17T12:45:01.411Z,22.79
2018-10-17T12:47:29.380Z,22.15
2018-10-17T12:49:57.240Z,22.57
2018-10-17T12:52:25.152Z,22.71
2018-10-17T12:54:53.057Z,22.54
2018-10-17T12:57:20.892Z,22.21
2018-10-17T12:59:48.771Z,22.25
2018-10-17T13:02:16.616Z,22.23
2018-10-17T13:04:44.467Z,21.22
2018-10-17T13:07:12.405Z,20.84
2018-10-17T13:09:40.234Z,20.99
2018-10-17T13:12:08.465Z,21.02
2018-10-17T13:14:36.355Z,21.13
2018-10-17T13:17:04.246Z,20.97
2018-10-17T13:19:32.105Z,20.88
2018-10-17T13:22:00.539Z,21.28
2018-10-17T13:24:28.425Z,21.35
2018-10-17T13:26:56.246Z,21.53
2018-10-17T13:29:24.112Z,21.82
2018-10-17T13:31:52.559Z,21.94
2018-10-17T13:34:20.887Z,22.05
2018-10-17T13:36:49.324Z,22.17
2018-10-17T13:39:17.551Z,22.22
2018-10-17T13:41:46.043Z,22.51
2018-10-17T13:44:14.335Z,22.39
2018-10-17T13:46:42.781Z,22.41
2018-10-17T13:49:11.195Z,22.39
2018-10-17T13:51:39.592Z,22.37
2018-10-17T13:54:07.352Z,22.17
2018-10-17T13:56:35.147Z,22.30
2018-10-17T13:59:03.046Z,22.23
2018-10-17T14:01:30.829Z,22.02
2018-10-17T14:03:58.617Z,21.87
2018-10-17T14:06:26.510Z,21.98
2018-10-17T14:08:54.331Z,21.97
2018-10-17T14:11:22.156Z,21.81
2018-10-17T14:13:49.984Z,21.51
2018-10-17T14:16:17.765Z,21.58
2018-10-17T14:18:45.538Z,21.44
2018-10-17T14:21:13.388Z,21.31
2018-10-17T14:23:41.180Z,21.46
2018-10-17T14:26:08.971Z,21.51
2018-10-17T14:28:36.814Z,21.46
2018-10-17T14:31:04.667Z,21.44
2018-10-17T14:33:32.463Z,21.43
2018-10-17T14:36:00.291Z,21.40
2018-10-17T14:38:28.097Z,21.32
2018-10-17T14:40:55.971Z,21.33
2018-10-17T14:43:23.751Z,21.31
2018-10-17T14:45:51.522Z,21.27
2018-10-17T14:48:19.382Z,21.20
2018-10-17T14:50:47.148Z,21.00
2018-10-17T14:53:15.022Z,20.56
2018-10-17T14:55:43.466Z,20.01
2018-10-17T14:58:11.775Z,19.94
2018-10-17T15:00:40.377Z,19.92
2018-10-17T15:03:08.967Z,20.03
2018-10-17T15:05:36.751Z,20.20
2018-10-17T15:08:05.235Z,20.26
2018-10-17T15:10:33.606Z,20.19
2018-10-17T15:13:02.060Z,20.23
2018-10-17T15:15:30.259Z,20.19
2018-10-17T15:17:58.768Z,20.10
2018-10-17T15:20:27.023Z,19.68
2018-10-17T15:22:55.187Z,19.64
2018-10-17T15:25:23.368Z,19.41
2018-10-17T15:27:51.419Z,19.37
2018-10-17T15:30:19.749Z,19.42
2018-10-17T15:32:47.798Z,19.39
2018-10-17T15:35:16.400Z,19.41
2018-10-17T15:37:44.756Z,19.45
2018-10-17T15:40:13.000Z,19.26
2018-10-17T15:42:40.809Z,19.09
2018-10-17T15:45:08.675Z,19.24
2018-10-17T15:47:36.405Z,19.16
2018-10-17T15:50:04.348Z,18.95
2018-10-17T15:52:32.460Z,18.84
2018-10-17T15:55:00.139Z,18.85
2018-10-17T15:57:27.858Z,18.84
2018-10-17T15:59:55.635Z,18.79
2018-10-17T16:02:23.469Z,18.83
2018-10-17T16:04:51.939Z,18.87
2018-10-17T16:07:19.719Z,18.89
2018-10-17T16:09:47.496Z,18.83
2018-10-17T16:12:15.878Z,18.85
2018-10-17T16:14:43.610Z,18.90
2018-10-17T16:17:11.752Z,18.79
2018-10-17T16:19:39.627Z,18.64
2018-10-17T16:22:07.413Z,18.46
2018-10-17T16:24:35.415Z,18.62
2018-10-17T16:27:03.246Z,18.76
2018-10-17T16:29:30.990Z,18.84
2018-10-17T16:31:58.818Z,18.92
2018-10-17T16:34:26.926Z,18.88
2018-10-17T16:36:54.716Z,18.85
2018-10-17T16:39:22.467Z,18.69
2018-10-17T16:41:50.299Z,18.48
2018-10-17T16:44:18.114Z,18.31
2018-10-17T16:46:45.849Z,18.33
2018-10-17T16:49:13.671Z,18.24
2018-10-17T16:51:41.439Z,17.98
2018-10-17T16:54:09.204Z,17.96
2018-10-17T16:56:37.521Z,18.06
2018-10-17T16:59:06.062Z,18.23
2018-10-17T17:01:34.253Z,18.29
2018-10-17T17:04:02.062Z,18.31
2018-10-17T17:06:29.847Z,18.33
2018-10-17T17:08:57.691Z,18.43
2018-10-17T17:11:25.555Z,18.44
2018-10-17T17:13:53.291Z,18.30
2018-10-17T17:16:21.150Z,18.07
2018-10-17T17:18:48.985Z,18.19
2018-10-17T17:21:17.127Z,18.21
2018-10-17T17:23:44.873Z,18.09
2018-10-17T17:26:12.691Z,18.11
2018-10-17T17:28:40.438Z,18.08
2018-10-17T17:31:08.226Z,18.00
2018-10-17T17:33:36.007Z,18.01
2018-10-17T17:36:03.913Z,17.94
2018-10-17T17:38:31.646Z,17.87
2018-10-17T17:40:59.438Z,17.87
2018-10-17T17:43:27.182Z,17.92
2018-10-17T17:45:54.955Z,18.02
2018-10-17T17:48:22.806Z,18.07
2018-10-17T17:50:50.951Z,18.13
2018-10-17T17:53:19.611Z,18.08
2018-10-17T17:55:47.961Z,18.02
2018-10-17T17:58:16.415Z,17.99
2018-10-17T18:00:44.663Z,18.03
2018-10-17T18:03:13.265Z,18.02
2018-10-17T18:05:41.641Z,17.97
2018-10-17T18:08:10.034Z,18.05
2018-10-17T18:10:37.850Z,18.06
2018-10-17T18:13:05.675Z,18.10
2018-10-17T18:15:33.484Z,18.14
2018-10-17T18:18:01.275Z,17.84
2018-10-17T18:20:29.018Z,17.64
2018-10-17T18:22:57.505Z,17.57
2018-10-17T18:25:25.834Z,17.35
2018-10-17T18:27:54.705Z,16.72
2018-10-17T18:30:22.462Z,16.91
2018-10-17T18:32:50.273Z,16.39
2018-10-17T18:35:18.493Z,16.33
2018-10-17T18:37:46.995Z,16.58
2018-10-17T18:40:15.205Z,16.50
2018-10-17T18:42:43.531Z,16.22
2018-10-17T18:45:11.823Z,16.21
2018-10-17T18:47:40.356Z,16.34
2018-10-17T18:50:08.734Z,16.45
2018-10-17T18:52:38.134Z,16.45
2018-10-17T18:55:07.176Z,16.40
2018-10-17T18:57:35.504Z,16.27
2018-10-17T19:00:04.106Z,16.25
2018-10-17T19:02:32.642Z,16.21
2018-10-17T19:05:00.877Z,16.33
2018-10-17T19:07:29.380Z,16.30
2018-10-17T19:09:57.679Z,16.44
2018-10-17T19:12:25.464Z,16.73
2018-10-17T19:14:53.260Z,16.54
2018-10-17T19:17:21.127Z,16.21
2018-10-17T19:19:48.957Z,16.73
2018-10-17T19:22:16.756Z,16.84
2018-10-17T19:24:44.661Z,16.82
2018-10-17T19:27:12.543Z,16.96
2018-10-17T19:29:40.275Z,16.98
2018-10-17T19:32:08.210Z,16.73
2018-10-17T19:34:35.982Z,16.98
2018-10-17T19:37:03.793Z,16.88
2018-10-17T19:39:31.652Z,16.81
2018-10-17T19:42:00.193Z,17.03
2018-10-17T19:44:28.361Z,17.09
2018-10-17T19:46:56.778Z,16.81
2018-10-17T19:49:25.436Z,16.61
2018-10-17T19:51:53.842Z,16.75
2018-10-17T19:54:22.207Z,16.43
2018-10-17T19:56:50.590Z,16.59
2018-10-17T19:59:19.072Z,16.41
2018-10-17T20:01:47.368Z,16.65
2018-10-17T20:04:15.796Z,16.66
2018-10-17T20:06:44.092Z,16.73
2018-10-17T20:09:12.697Z,16.58
2018-10-17T20:11:40.885Z,16.90
2018-10-17T20:14:09.459Z,16.78
2018-10-17T20:16:37.574Z,16.70
2018-10-17T20:19:06.108Z,16.83
2018-10-17T20:21:34.368Z,16.91
2018-10-17T20:24:02.276Z,16.92
2018-10-17T20:26:30.057Z,16.89
2018-10-17T20:28:58.380Z,17.02
2018-10-17T20:31:26.743Z,16.89
2018-10-17T20:33:55.116Z,16.95
2018-10-17T20:36:23.414Z,17.10
2018-10-17T20:38:51.897Z,16.86
2018-10-17T20:41:20.178Z,16.86
2018-10-17T20:43:48.623Z,16.89
2018-10-17T20:46:16.973Z,16.95
2018-10-17T20:48:45.393Z,16.90
2018-10-17T20:51:13.647Z,16.88
2018-10-17T20:53:42.218Z,16.83
2018-10-17T20:56:10.439Z,16.80
2018-10-17T20:58:38.895Z,16.68
2018-10-17T21:01:06.728Z,16.57
2018-10-17T21:03:35.056Z,16.56
2018-10-17T21:06:03.554Z,16.64
2018-10-17T21:08:31.863Z,16.91
2018-10-17T21:11:00.309Z,17.06
2018-10-17T21:13:28.565Z,17.09
2018-10-17T21:15:57.085Z,17.03
2018-10-17T21:18:25.397Z,17.13
2018-10-17T21:20:53.795Z,17.11
2018-10-17T21:23:21.595Z,17.13
2018-10-17T21:25:49.360Z,17.09
2018-10-17T21:28:17.109Z,16.92
2018-10-17T21:30:44.936Z,16.93
2018-10-17T21:33:12.714Z,17.02
2018-10-17T21:35:40.477Z,17.04
2018-10-17T21:38:08.302Z,17.05
2018-10-17T21:40:36.107Z,16.86
2018-10-17T21:43:04.161Z,16.78
2018-10-17T21:45:31.983Z,16.84
2018-10-17T21:47:59.772Z,16.66
2018-10-17T21:50:27.562Z,16.27
2018-10-17T21:52:55.377Z,16.33
2018-10-17T21:55:23.170Z,16.39
2018-10-17T21:57:51.141Z,16.36
2018-10-17T22:00:19.031Z,16.32
2018-10-17T22:02:46.822Z,15.99
2018-10-17T22:05:15.202Z,15.75
2018-10-17T22:07:43.514Z,15.84
2018-10-17T22:10:11.945Z,15.84
2018-10-17T22:12:40.410Z,16.00
2018-10-17T22:15:09.344Z,15.64
2018-10-17T22:17:37.773Z,15.50
2018-10-17T22:20:06.653Z,15.52
2018-10-17T22:22:34.827Z,15.71
2018-10-17T22:25:03.283Z,15.68
2018-10-17T22:27:31.508Z,15.88
2018-10-17T22:30:00.084Z,16.01
2018-10-17T22:32:28.271Z,16.00
2018-10-17T22:34:56.904Z,15.90
2018-10-17T22:37:24.984Z,15.88
2018-10-17T22:39:53.383Z,15.66
2018-10-17T22:42:21.542Z,15.69
2018-10-17T22:44:49.619Z,15.62
2018-10-17T22:47:17.984Z,15.55
2018-10-17T22:49:46.207Z,15.36
2018-10-17T22:52:14.519Z,15.26
2018-10-17T22:54:42.919Z,15.25
2018-10-17T22:57:11.219Z,15.16
2018-10-17T22:59:39.135Z,15.04
2018-10-17T23:02:07.363Z,15.09
2018-10-17T23:04:35.631Z,15.03
2018-10-17T23:07:04.176Z,15.19
2018-10-17T23:09:32.406Z,15.31
2018-10-17T23:12:00.670Z,15.49
2018-10-17T23:14:28.989Z,15.72
2018-10-17T23:16:57.240Z,15.89
2018-10-17T23:19:25.484Z,16.00
2018-10-17T23:21:53.831Z,16.11
2018-10-17T23:24:22.049Z,16.25
2018-10-17T23:26:50.273Z,16.21
2018-10-17T23:29:18.623Z,16.10
2018-10-17T23:31:46.883Z,16.07
2018-10-17T23:34:15.388Z,16.22
2018-10-17T23:36:43.673Z,16.40
2018-10-17T23:39:11.895Z,16.49
2018-10-17T23:41:40.463Z,16.50
2018-10-17T23:44:08.801Z,16.58
2018-10-17T23:46:37.141Z,16.69
2018-10-17T23:49:05.560Z,16.81
2018-10-17T23:51:33.928Z,16.83
2018-10-17T23:54:02.187Z,16.84
2018-10-17T23:56:30.407Z,16.84
2018-10-17T23:58:58.758Z,17.23
